Time;durP1;ratioP1;P1;durP2;ratioP2;P2;SDS_P1;SDS_P2;PMS_P1;PMS_P2;Temp;Humidity;BMP_temperature;BMP_pressure;BME280_temperature;BME280_humidity;BME280_pressure;Samples;Min_cycle;Max_cycle;Signal;HPM_P1;HPM_P2
2022/04/03 00:00:41;;;;;;;;;;;;;;;0.31;64.20;102376.56;5053536;28;19970;-34
2022/04/03 00:03:07;;;;;;;;;;;;;;;0.32;64.26;102378.25;5053983;28;20368;-35
2022/04/03 00:05:38;;;;;;;;;;;;;;;0.26;65.05;102382.28;5053768;28;19939;-34
2022/04/03 00:08:07;;;;;;;;;;;;;;;0.22;64.85;102373.69;5053491;28;20422;-34
2022/04/03 00:10:32;;;;;;;;;;;;;;;0.22;65.31;102376.34;5053666;28;19921;-34
2022/04/03 00:12:58;;;;;;;;;;;;;;;0.20;65.24;102374.81;5052953;28;19924;-34
2022/04/03 00:15:23;;;;;;;;;;;;;;;0.17;64.34;102380.38;5053606;28;20012;-33
2022/04/03 00:17:48;;;;;;;;;;;;;;;0.17;64.33;102369.72;5052944;28;19956;-33
2022/04/03 00:20:14;;;;;;;;;;;;;;;0.14;64.25;102375.28;5053943;28;19923;-33
2022/04/03 00:22:40;;;;;;;;;;;;;;;0.10;64.89;102374.72;5053233;28;19917;-34
2022/04/03 00:25:05;;;;;;;;;;;;;;;0.06;65.23;102383.91;5052951;28;19921;-33
2022/04/03 00:27:31;;;;;;;;;;;;;;;0.03;64.71;102378.81;5053484;28;19917;-33
2022/04/03 00:29:56;;;;;;;;;;;;;;;0.04;64.67;102379.66;5053849;28;19924;-34
2022/04/03 00:32:21;;;;;;;;;;;;;;;0.05;64.84;102382.22;5053031;28;19995;-34
2022/04/03 00:34:47;;;;;;;;;;;;;;;0.04;65.26;102377.84;5053831;28;19999;-34
2022/04/03 00:37:12;;;;;;;;;;;;;;;-0.01;65.66;102380.88;5052954;28;19916;-34
2022/04/03 00:39:38;;;;;;;;;;;;;;;-0.05;65.40;102375.94;5052931;28;19924;-35
2022/04/03 00:42:05;;;;;;;;;;;;;;;-0.07;66.22;102376.06;5052931;28;19924;-34
2022/04/03 00:44:30;;;;;;;;;;;;;;;-0.10;65.48;102378.13;5053243;28;19971;-34
2022/04/03 00:46:57;;;;;;;;;;;;;;;-0.13;65.59;102384.53;5053119;28;19920;-34
2022/04/03 00:49:22;;;;;;;;;;;;;;;-0.15;65.81;102386.47;5052707;28;19917;-34
2022/04/03 00:51:47;;;;;;;;;;;;;;;-0.18;65.27;102391.19;5052994;28;19935;-34
2022/04/03 00:54:13;;;;;;;;;;;;;;;-0.27;66.16;102380.31;5054404;28;19917;-34
2022/04/03 00:56:38;;;;;;;;;;;;;;;-0.29;66.29;102379.63;5056481;28;20381;-34
2022/04/03 00:59:03;;;;;;;;;;;;;;;-0.35;66.62;102376.59;5056562;28;19916;-34
2022/04/03 01:01:29;;;;;;;;;;;;;;;-0.37;66.17;102378.53;5056508;28;19917;-35
2022/04/03 01:03:54;;;;;;;;;;;;;;;-0.39;66.42;102376.00;5057209;28;20009;-35
2022/04/03 01:06:19;;;;;;;;;;;;;;;-0.39;66.07;102378.66;5056662;28;20011;-34
2022/04/03 01:08:44;;;;;;;;;;;;;;;-0.38;66.98;102369.72;5056816;28;19921;-34
2022/04/03 01:11:13;;;;;;;;;;;;;;;-0.40;66.82;102371.63;5056518;28;19917;-34
2022/04/03 01:13:45;;;;;;;;;;;;;;;-0.42;66.76;102370.91;5056008;28;20407;-34
2022/04/03 01:16:11;;;;;;;;;;;;;;;-0.45;66.73;102376.47;5057161;28;19923;-34
2022/04/03 01:18:36;;;;;;;;;;;;;;;-0.47;67.70;102374.91;5056096;28;19916;-34
2022/04/03 01:21:02;;;;;;;;;;;;;;;-0.47;67.45;102370.44;5057174;28;19916;-34
2022/04/03 01:23:28;;;;;;;;;;;;;;;-0.48;67.29;102373.22;5057011;28;19920;-34
2022/04/03 01:25:53;;;;;;;;;;;;;;;-0.52;66.60;102369.97;5056374;28;19925;-34
2022/04/03 01:28:18;;;;;;;;;;;;;;;-0.55;67.71;102383.47;5056050;28;19963;-34
2022/04/03 01:30:44;;;;;;;;;;;;;;;-0.60;66.95;102373.22;5056025;28;20373;-34
2022/04/03 01:33:09;;;;;;;;;;;;;;;-0.65;67.34;102371.88;5056368;28;19959;-34
2022/04/03 01:35:34;;;;;;;;;;;;;;;-0.68;67.90;102382.75;5056381;28;19921;-34
2022/04/03 01:37:59;;;;;;;;;;;;;;;-0.72;67.35;102376.00;5056003;28;19970;-34
2022/04/03 01:40:24;;;;;;;;;;;;;;;-0.79;68.00;102371.16;5056241;28;19928;-34
2022/04/03 01:42:50;;;;;;;;;;;;;;;-0.84;68.39;102373.31;5055944;28;20357;-34
2022/04/03 01:45:15;;;;;;;;;;;;;;;-0.89;67.45;102375.47;5055597;28;19922;-34
2022/04/03 01:47:41;;;;;;;;;;;;;;;-0.98;68.17;102364.72;5055758;28;20262;-34
2022/04/03 01:50:06;;;;;;;;;;;;;;;-1.00;67.99;102362.19;5056296;28;20153;-34
2022/04/03 01:52:31;;;;;;;;;;;;;;;-0.97;68.59;102369.94;5055423;28;19921;-34
2022/04/03 01:54:57;;;;;;;;;;;;;;;-0.89;68.76;102364.88;5056233;28;20021;-34
2022/04/03 01:57:22;;;;;;;;;;;;;;;-0.83;68.54;102364.41;5055673;28;20403;-34
2022/04/03 01:59:47;;;;;;;;;;;;;;;-0.77;68.52;102357.75;5056106;28;19920;-34
2022/04/03 02:02:12;;;;;;;;;;;;;;;-0.77;68.81;102355.09;5055405;28;19916;-34
2022/04/03 02:04:37;;;;;;;;;;;;;;;-0.84;68.72;102359.19;5055323;28;19916;-34
2022/04/03 02:07:03;;;;;;;;;;;;;;;-0.88;69.06;102368.34;5055501;28;19916;-34
2022/04/03 02:09:29;;;;;;;;;;;;;;;-0.92;68.46;102359.81;5055641;28;19974;-34
2022/04/03 02:11:54;;;;;;;;;;;;;;;-0.94;69.19;102355.56;5055676;28;19917;-34
2022/04/03 02:14:24;;;;;;;;;;;;;;;-0.94;69.16;102356.41;5055377;28;20015;-34
2022/04/03 02:16:50;;;;;;;;;;;;;;;-0.97;69.00;102359.31;5055881;28;19962;-34
2022/04/03 02:19:15;;;;;;;;;;;;;;;-0.98;68.74;102365.56;5055247;28;20394;-34
2022/04/03 02:21:40;;;;;;;;;;;;;;;-1.00;69.15;102356.03;5055526;28;19924;-34
2022/04/03 02:24:07;;;;;;;;;;;;;;;-0.99;69.40;102353.25;5054907;28;19917;-34
2022/04/03 02:26:33;;;;;;;;;;;;;;;-0.96;69.30;102353.03;5055146;28;19917;-34
2022/04/03 02:28:58;;;;;;;;;;;;;;;-0.95;69.53;102354.72;5055058;28;19923;-34
2022/04/03 02:31:23;;;;;;;;;;;;;;;-0.94;69.20;102358.22;5055561;28;19924;-34
2022/04/03 02:33:48;;;;;;;;;;;;;;;-0.97;69.62;102356.66;5055140;28;20345;-34
2022/04/03 02:36:14;;;;;;;;;;;;;;;-0.95;68.88;102352.06;5055072;28;20416;-34
2022/04/03 02:38:39;;;;;;;;;;;;;;;-0.95;68.96;102354.72;5055268;28;19975;-34
2022/04/03 02:41:04;;;;;;;;;;;;;;;-0.95;69.50;102349.41;5054837;28;19928;-34
2022/04/03 02:43:29;;;;;;;;;;;;;;;-0.94;69.45;102352.91;5054637;28;19917;-34
2022/04/03 02:45:54;;;;;;;;;;;;;;;-0.97;69.92;102356.66;5054704;28;19928;-35
2022/04/03 02:48:20;;;;;;;;;;;;;;;-1.01;69.84;102355.22;5054703;28;19917;-35
2022/04/03 02:50:45;;;;;;;;;;;;;;;-1.04;69.63;102361.59;5054863;28;19917;-35
2022/04/03 02:53:11;;;;;;;;;;;;;;;-1.09;70.39;102353.13;5054645;28;19917;-35
2022/04/03 02:55:36;;;;;;;;;;;;;;;-1.08;70.57;102361.94;5054952;28;20031;-34
2022/04/03 02:58:01;;;;;;;;;;;;;;;-1.08;70.57;102359.28;5054170;28;19916;-35
2022/04/03 03:00:26;;;;;;;;;;;;;;;-1.07;70.90;102366.31;5054780;28;20016;-34
2022/04/03 03:02:52;;;;;;;;;;;;;;;-1.12;70.31;102360.50;5054306;28;20384;-35
2022/04/03 03:05:17;;;;;;;;;;;;;;;-1.17;70.21;102366.16;5054381;28;20293;-35
2022/04/03 03:07:45;;;;;;;;;;;;;;;-1.22;70.48;102365.66;5054108;28;19917;-35
2022/04/03 03:10:13;;;;;;;;;;;;;;;-1.21;71.26;102363.84;5054679;28;19916;-35
2022/04/03 03:12:38;;;;;;;;;;;;;;;-1.20;71.31;102365.53;5053909;28;20359;-37
2022/04/03 03:15:04;;;;;;;;;;;;;;;-1.23;70.77;102363.13;5054786;28;19959;-35
2022/04/03 03:17:29;;;;;;;;;;;;;;;-1.27;71.01;102359.84;5053729;28;19917;-35
2022/04/03 03:19:55;;;;;;;;;;;;;;;-1.30;70.89;102366.25;5053759;28;20277;-35
2022/04/03 03:22:20;;;;;;;;;;;;;;;-1.32;71.46;102362.88;5054080;28;19924;-35
2022/04/03 03:24:45;;;;;;;;;;;;;;;-1.35;71.26;102367.56;5054439;28;19924;-35
2022/04/03 03:27:10;;;;;;;;;;;;;;;-1.45;71.85;102362.09;5053578;28;19917;-35
2022/04/03 03:29:36;;;;;;;;;;;;;;;-1.43;71.88;102370.78;5053568;28;20075;-35
2022/04/03 03:32:01;;;;;;;;;;;;;;;-1.48;72.41;102364.97;5054461;28;19968;-35
2022/04/03 03:34:26;;;;;;;;;;;;;;;-1.49;72.70;102370.41;5054076;28;19948;-35
2022/04/03 03:36:52;;;;;;;;;;;;;;;-1.52;72.39;102373.28;5054223;28;19924;-35
2022/04/03 03:39:17;;;;;;;;;;;;;;;-1.54;73.21;102373.41;5054431;28;20269;-34
2022/04/03 03:41:43;;;;;;;;;;;;;;;-1.57;72.49;102377.09;5054126;28;20046;-35
2022/04/03 03:44:10;;;;;;;;;;;;;;;-1.60;72.74;102371.22;5053310;28;20297;-34
2022/04/03 03:46:39;;;;;;;;;;;;;;;-1.68;72.55;102369.13;5053940;28;20277;-34
2022/04/03 03:49:06;;;;;;;;;;;;;;;-1.71;72.70;102377.28;5053485;28;19924;-35
2022/04/03 03:51:32;;;;;;;;;;;;;;;-1.70;73.91;102379.00;5053405;28;20288;-35
2022/04/03 03:53:57;;;;;;;;;;;;;;;-1.67;73.35;102383.22;5053570;28;20011;-35
2022/04/03 03:56:22;;;;;;;;;;;;;;;-1.67;72.97;102373.44;5053841;28;20270;-35
2022/04/03 03:58:47;;;;;;;;;;;;;;;-1.71;73.89;102376.44;5053022;28;19917;-35
2022/04/03 04:01:12;;;;;;;;;;;;;;;-1.74;74.10;102366.94;5053324;28;20265;-35
2022/04/03 04:03:38;;;;;;;;;;;;;;;-1.75;74.32;102375.00;5053107;28;20374;-35
2022/04/03 04:06:03;;;;;;;;;;;;;;;-1.77;73.57;102376.91;5052971;28;19947;-35
2022/04/03 04:08:28;;;;;;;;;;;;;;;-1.82;73.64;102367.47;5051812;28;19968;-35
2022/04/03 04:10:54;;;;;;;;;;;;;;;-1.89;74.55;102373.34;5052919;28;20400;-35
2022/04/03 04:13:19;;;;;;;;;;;;;;;-1.89;74.43;102366.25;5052661;28;19916;-35
2022/04/03 04:15:44;;;;;;;;;;;;;;;-1.91;74.76;102364.66;5053275;28;19920;-35
2022/04/03 04:18:09;;;;;;;;;;;;;;;-1.91;74.18;102372.59;5053306;28;19924;-35
2022/04/03 04:20:34;;;;;;;;;;;;;;;-1.95;73.95;102379.97;5053034;28;19927;-35
2022/04/03 04:23:00;;;;;;;;;;;;;;;-2.01;73.86;102377.72;5053330;28;19917;-34
2022/04/03 04:25:25;;;;;;;;;;;;;;;-2.09;74.84;102383.63;5052945;28;19917;-35
2022/04/03 04:27:50;;;;;;;;;;;;;;;-2.09;75.04;102388.06;5053191;28;19970;-35
2022/04/03 04:30:16;;;;;;;;;;;;;;;-2.01;74.40;102383.03;5053369;28;19916;-35
2022/04/03 04:32:41;;;;;;;;;;;;;;;-1.91;74.94;102384.06;5052902;28;19993;-35
2022/04/03 04:35:07;;;;;;;;;;;;;;;-1.85;74.54;102370.38;5053625;28;19971;-34
2022/04/03 04:37:33;;;;;;;;;;;;;;;-1.76;74.27;102376.78;5053223;28;20320;-35
2022/04/03 04:39:58;;;;;;;;;;;;;;;-1.75;74.73;102370.53;5052533;28;19924;-35
2022/04/03 04:42:24;;;;;;;;;;;;;;;-1.82;74.19;102379.88;5052767;28;19970;-35
2022/04/03 04:44:49;;;;;;;;;;;;;;;-1.97;74.04;102376.56;5052779;28;19935;-35
2022/04/03 04:47:14;;;;;;;;;;;;;;;-1.96;75.02;102385.34;5052803;28;20341;-35
2022/04/03 04:49:39;;;;;;;;;;;;;;;-1.97;75.21;102392.47;5052702;28;20392;-34
2022/04/03 04:52:05;;;;;;;;;;;;;;;-1.93;74.96;102391.28;5052537;28;19924;-35
2022/04/03 04:54:30;;;;;;;;;;;;;;;-2.00;74.31;102395.34;5053408;28;20327;-35
2022/04/03 04:56:56;;;;;;;;;;;;;;;-2.10;75.38;102395.19;5052702;28;20265;-35
2022/04/03 04:59:21;;;;;;;;;;;;;;;-2.09;75.30;102396.03;5052291;28;19923;-35
2022/04/03 05:01:46;;;;;;;;;;;;;;;-2.02;75.83;102404.38;5053089;28;19964;-35
2022/04/03 05:04:11;;;;;;;;;;;;;;;-2.00;75.55;102403.31;5052550;28;19939;-34
2022/04/03 05:06:37;;;;;;;;;;;;;;;-1.94;76.24;102400.22;5052966;28;19971;-35
2022/04/03 05:09:05;;;;;;;;;;;;;;;-1.95;75.56;102414.44;5052570;28;20373;-34
2022/04/03 05:11:31;;;;;;;;;;;;;;;-1.98;76.11;102417.28;5052779;28;19917;-35
2022/04/03 05:13:57;;;;;;;;;;;;;;;-1.97;76.08;102412.84;5052891;28;19970;-35
2022/04/03 05:16:22;;;;;;;;;;;;;;;-1.91;75.49;102407.91;5052739;28;19924;-35
2022/04/03 05:18:48;;;;;;;;;;;;;;;-1.87;75.44;102409.41;5052351;28;20320;-35
2022/04/03 05:21:13;;;;;;;;;;;;;;;-1.80;75.66;102415.13;5052597;28;20339;-35
2022/04/03 05:23:39;;;;;;;;;;;;;;;-1.74;75.95;102409.34;5052102;28;19916;-35
2022/04/03 05:26:05;;;;;;;;;;;;;;;-1.75;76.09;102409.47;5052870;28;19952;-35
2022/04/03 05:28:30;;;;;;;;;;;;;;;-1.76;76.13;102411.25;5051213;28;19921;-35
2022/04/03 05:30:55;;;;;;;;;;;;;;;-1.71;76.10;102409.13;5052559;28;20035;-35
2022/04/03 05:33:20;;;;;;;;;;;;;;;-1.63;75.65;102411.22;5051936;28;20402;-35
2022/04/03 05:35:46;;;;;;;;;;;;;;;-1.58;75.35;102417.03;5052631;28;19959;-35
2022/04/03 05:38:11;;;;;;;;;;;;;;;-1.52;75.95;102418.38;5051805;28;19916;-35
2022/04/03 05:40:36;;;;;;;;;;;;;;;-1.52;75.21;102421.88;5054880;28;20023;-34
2022/04/03 05:43:01;;;;;;;;;;;;;;;-1.50;76.02;102421.78;5055458;28;19974;-34
2022/04/03 05:45:27;;;;;;;;;;;;;;;-1.46;75.42;102423.25;5056060;28;19967;-34
2022/04/03 05:47:52;;;;;;;;;;;;;;;-1.42;75.72;102424.69;5055926;28;19962;-34
2022/04/03 05:50:19;;;;;;;;;;;;;;;-1.34;75.75;102420.50;5055927;28;19917;-35
2022/04/03 05:52:48;;;;;;;;;;;;;;;-1.24;75.84;102430.44;5056248;28;20243;-35
2022/04/03 05:55:16;;;;;;;;;;;;;;;-1.26;75.96;102429.72;5056300;28;19917;-35
2022/04/03 05:57:42;;;;;;;;;;;;;;;-1.26;76.63;102429.72;5056041;28;20015;-35
2022/04/03 06:00:08;;;;;;;;;;;;;;;-1.18;76.91;102433.47;5055624;28;20011;-35
2022/04/03 06:02:47;;;;;;;;;;;;;;;-1.08;76.27;102433.63;5055333;28;20265;-35
2022/04/03 06:05:12;;;;;;;;;;;;;;;-1.05;76.93;102439.56;5056217;28;20305;-35
2022/04/03 06:07:37;;;;;;;;;;;;;;;-0.98;76.90;102434.59;5055506;28;19916;-35
2022/04/03 06:10:03;;;;;;;;;;;;;;;-0.91;76.41;102432.34;5055993;28;19917;-35
2022/04/03 06:12:28;;;;;;;;;;;;;;;-0.88;76.87;102435.63;5055262;28;19994;-35
2022/04/03 06:14:53;;;;;;;;;;;;;;;-0.84;76.69;102431.75;5055187;28;19921;-35
2022/04/03 06:17:19;;;;;;;;;;;;;;;-0.75;76.59;102438.16;5055421;28;19917;-35
2022/04/03 06:19:44;;;;;;;;;;;;;;;-0.64;77.10;102437.34;5055283;28;19947;-35
2022/04/03 06:22:09;;;;;;;;;;;;;;;-0.54;77.13;102433.88;5054989;28;20058;-35
2022/04/03 06:24:34;;;;;;;;;;;;;;;-0.50;77.00;102433.59;5055617;28;20340;-35
2022/04/03 06:27:00;;;;;;;;;;;;;;;-0.48;76.29;102437.84;5054789;28;19927;-35
2022/04/03 06:29:25;;;;;;;;;;;;;;;-0.49;76.38;102436.13;5055173;28;19917;-34
2022/04/03 06:31:50;;;;;;;;;;;;;;;-0.49;76.81;102436.13;5054875;28;19917;-34
2022/04/03 06:34:16;;;;;;;;;;;;;;;-0.47;76.42;102436.88;5055372;28;19925;-34
2022/04/03 06:36:41;;;;;;;;;;;;;;;-0.41;77.03;102432.91;5055283;28;19917;-34
2022/04/03 06:39:06;;;;;;;;;;;;;;;-0.39;77.15;102430.94;5055327;28;19917;-34
2022/04/03 06:41:32;;;;;;;;;;;;;;;-0.40;76.48;102430.09;5054767;28;19917;-34
2022/04/03 06:43:58;;;;;;;;;;;;;;;-0.41;77.18;102436.41;5054635;28;19982;-34
2022/04/03 06:46:24;;;;;;;;;;;;;;;-0.41;76.93;102439.06;5054137;28;19917;-35
2022/04/03 06:48:49;;;;;;;;;;;;;;;-0.34;77.17;102439.41;5054228;28;19970;-34
2022/04/03 06:51:14;;;;;;;;;;;;;;;-0.29;76.90;102437.25;5054315;28;20070;-34
2022/04/03 06:53:39;;;;;;;;;;;;;;;-0.27;77.22;102433.50;5054395;28;20054;-34
2022/04/03 06:56:05;;;;;;;;;;;;;;;-0.20;76.64;102433.84;5054744;28;20389;-34
2022/04/03 06:58:30;;;;;;;;;;;;;;;-0.16;76.80;102432.63;5054422;28;20369;-34
2022/04/03 07:00:55;;;;;;;;;;;;;;;-0.03;76.80;102443.16;5054682;28;19923;-34
2022/04/03 07:03:20;;;;;;;;;;;;;;;0.04;76.77;102443.50;5054517;28;20443;-34
2022/04/03 07:05:46;;;;;;;;;;;;;;;0.08;76.47;102440.47;5054715;28;19917;-34
2022/04/03 07:08:11;;;;;;;;;;;;;;;0.24;76.56;102437.41;5053772;28;19916;-34
2022/04/03 07:10:36;;;;;;;;;;;;;;;0.41;76.65;102436.06;5054254;28;19917;-34
2022/04/03 07:13:02;;;;;;;;;;;;;;;0.54;76.96;102441.19;5054464;28;19972;-34
2022/04/03 07:15:27;;;;;;;;;;;;;;;0.67;77.02;102432.06;5054343;28;19996;-35
2022/04/03 07:17:52;;;;;;;;;;;;;;;0.82;76.91;102434.44;5054361;28;20273;-35
2022/04/03 07:20:17;;;;;;;;;;;;;;;0.97;76.58;102435.81;5054310;28;19917;-35
2022/04/03 07:22:43;;;;;;;;;;;;;;;1.09;76.45;102429.44;5054154;28;20365;-34
2022/04/03 07:25:09;;;;;;;;;;;;;;;1.18;76.98;102438.50;5053714;28;19924;-34
2022/04/03 07:27:34;;;;;;;;;;;;;;;1.29;77.46;102433.91;5053975;28;19928;-34
2022/04/03 07:29:59;;;;;;;;;;;;;;;1.40;77.79;102440.16;5053974;28;19921;-35
2022/04/03 07:32:25;;;;;;;;;;;;;;;1.48;77.41;102443.84;5053854;28;19928;-34
2022/04/03 07:34:50;;;;;;;;;;;;;;;1.57;77.68;102442.22;5052741;28;19920;-35
2022/04/03 07:37:15;;;;;;;;;;;;;;;1.65;76.93;102442.38;5053895;28;20365;-35
2022/04/03 07:39:40;;;;;;;;;;;;;;;1.75;77.20;102445.94;5053878;28;19917;-35
2022/04/03 07:42:06;;;;;;;;;;;;;;;1.86;77.47;102444.16;5053625;28;19917;-35
2022/04/03 07:44:31;;;;;;;;;;;;;;;1.95;77.81;102451.34;5054571;28;19927;-35
2022/04/03 07:46:56;;;;;;;;;;;;;;;2.06;76.98;102453.91;5054340;28;20443;-35
2022/04/03 07:49:22;;;;;;;;;;;;;;;2.17;77.13;102445.78;5053492;28;19920;-34
2022/04/03 07:51:47;;;;;;;;;;;;;;;2.27;77.73;102445.81;5054292;28;20281;-34
2022/04/03 07:54:12;;;;;;;;;;;;;;;2.38;77.21;102443.03;5054118;28;19929;-34
2022/04/03 07:56:37;;;;;;;;;;;;;;;2.50;77.20;102446.44;5053977;28;20357;-34
2022/04/03 07:59:05;;;;;;;;;;;;;;;2.60;77.10;102447.28;5053907;28;19916;-34
2022/04/03 08:01:31;;;;;;;;;;;;;;;2.71;76.81;102444.47;5054061;28;19928;-35
2022/04/03 08:03:56;;;;;;;;;;;;;;;2.82;76.78;102448.81;5053197;28;19916;-35
2022/04/03 08:06:21;;;;;;;;;;;;;;;2.96;75.63;102447.53;5053413;28;19944;-35
2022/04/03 08:08:46;;;;;;;;;;;;;;;3.11;75.18;102451.47;5054124;28;20357;-35
2022/04/03 08:11:12;;;;;;;;;;;;;;;3.20;74.00;102439.06;5053972;28;19967;-35
2022/04/03 08:13:37;;;;;;;;;;;;;;;3.32;73.63;102449.47;5085565;28;19924;-36
2022/04/03 08:16:02;;;;;;;;;;;;;;;3.46;73.76;102447.31;5053572;28;19924;-35
2022/04/03 08:18:28;;;;;;;;;;;;;;;3.56;71.98;102440.97;5053264;28;19917;-35
2022/04/03 08:20:53;;;;;;;;;;;;;;;3.69;72.51;102442.47;5053312;28;19916;-35
2022/04/03 08:23:19;;;;;;;;;;;;;;;3.80;71.62;102439.59;5052974;28;19917;-34
2022/04/03 08:25:45;;;;;;;;;;;;;;;3.92;71.66;102440.25;5051830;28;19975;-34
2022/04/03 08:28:10;;;;;;;;;;;;;;;4.01;71.36;102440.22;5053282;28;19916;-34
2022/04/03 08:30:37;;;;;;;;;;;;;;;4.09;70.84;102434.94;5054028;28;20245;-34
2022/04/03 08:33:04;;;;;;;;;;;;;;;4.17;69.56;102444.06;5053526;28;19921;-34
2022/04/03 08:35:31;;;;;;;;;;;;;;;4.21;69.31;102440.94;5053609;28;19917;-34
2022/04/03 08:37:56;;;;;;;;;;;;;;;4.29;70.68;102442.84;5053076;28;19916;-34
2022/04/03 08:40:22;;;;;;;;;;;;;;;4.42;69.53;102446.00;5053621;28;19967;-34
2022/04/03 08:42:49;;;;;;;;;;;;;;;4.55;68.11;102448.31;5053025;28;19917;-34
2022/04/03 08:45:14;;;;;;;;;;;;;;;4.59;69.14;102450.56;5052961;28;19923;-34
2022/04/03 08:47:42;;;;;;;;;;;;;;;4.69;68.75;102452.31;5053625;28;19917;-35
2022/04/03 08:50:08;;;;;;;;;;;;;;;4.80;68.72;102447.56;5052742;28;20395;-35
2022/04/03 08:52:35;;;;;;;;;;;;;;;4.95;69.43;102447.00;5052552;28;20003;-35
2022/04/03 08:55:02;;;;;;;;;;;;;;;5.13;69.01;102445.16;5053214;28;19963;-35
2022/04/03 08:57:27;;;;;;;;;;;;;;;5.34;68.41;102450.16;5052907;28;20000;-34
2022/04/03 08:59:53;;;;;;;;;;;;;;;5.57;68.02;102445.13;5053464;28;19948;-35
2022/04/03 09:02:19;;;;;;;;;;;;;;;5.85;66.85;102449.25;5052890;28;19970;-35
2022/04/03 09:04:44;;;;;;;;;;;;;;;6.03;66.63;102446.53;5053098;28;20381;-35
2022/04/03 09:07:15;;;;;;;;;;;;;;;6.03;65.85;102440.31;5053441;28;20367;-35
2022/04/03 09:09:40;;;;;;;;;;;;;;;5.86;61.45;102447.44;5053201;28;20274;-35
2022/04/03 09:12:10;;;;;;;;;;;;;;;5.78;61.90;102450.09;5052706;28;19916;-35
2022/04/03 09:14:43;;;;;;;;;;;;;;;5.75;63.77;102436.97;5054258;28;19923;-35
2022/04/03 09:17:08;;;;;;;;;;;;;;;5.76;64.75;102435.97;5057442;28;19963;-35
2022/04/03 09:19:34;;;;;;;;;;;;;;;5.68;64.17;102434.09;5056866;28;19925;-35
2022/04/03 09:22:00;;;;;;;;;;;;;;;5.69;64.41;102435.78;5056800;28;19963;-35
2022/04/03 09:24:25;;;;;;;;;;;;;;;5.81;63.39;102434.50;5056438;28;19924;-35
2022/04/03 09:27:01;;;;;;;;;;;;;;;5.97;63.54;102436.44;5056188;28;19923;-35
2022/04/03 09:29:27;;;;;;;;;;;;;;;6.16;64.57;102428.13;5056608;28;19917;-35
2022/04/03 09:31:59;;;;;;;;;;;;;;;6.31;63.25;102427.50;5056346;28;20342;-35
2022/04/03 09:34:26;;;;;;;;;;;;;;;6.47;63.07;102429.38;5056873;28;20028;-35
2022/04/03 09:37:01;;;;;;;;;;;;;;;6.59;63.06;102422.69;5055974;28;19923;-35
2022/04/03 09:39:28;;;;;;;;;;;;;;;6.73;61.36;102427.38;5056238;28;19923;-35
2022/04/03 09:42:12;;;;;;;;;;;;;;;6.69;58.49;102417.97;5056417;28;20341;-35
2022/04/03 09:44:38;;;;;;;;;;;;;;;6.45;60.61;102421.47;5056147;28;19917;-35
2022/04/03 09:47:13;;;;;;;;;;;;;;;6.57;58.62;102417.44;5055886;28;19924;-35
2022/04/03 09:49:38;;;;;;;;;;;;;;;6.62;56.70;102414.25;5056119;28;19923;-35
2022/04/03 09:52:04;;;;;;;;;;;;;;;6.55;58.29;102415.94;5056227;28;19935;-35
2022/04/03 09:54:29;;;;;;;;;;;;;;;6.68;59.60;102410.91;5055611;28;20361;-35
2022/04/03 09:56:54;;;;;;;;;;;;;;;6.89;59.61;102403.19;5055930;28;19921;-35
2022/04/03 09:59:20;;;;;;;;;;;;;;;7.18;58.96;102396.44;5056550;28;20046;-35
2022/04/03 10:01:45;;;;;;;;;;;;;;;7.47;60.01;102403.94;5056027;28;19917;-35
2022/04/03 10:04:11;;;;;;;;;;;;;;;7.70;56.80;102395.94;5055812;28;20430;-35
2022/04/03 10:06:40;;;;;;;;;;;;;;;7.70;55.55;102393.25;5056040;28;20008;-35
2022/04/03 10:09:12;;;;;;;;;;;;;;;7.52;55.62;102389.97;5056258;28;19917;-35
2022/04/03 10:11:37;;;;;;;;;;;;;;;7.29;55.02;102389.84;5055960;28;19917;-35
2022/04/03 10:14:03;;;;;;;;;;;;;;;7.17;54.24;102394.75;5056023;28;19978;-35
2022/04/03 10:16:29;;;;;;;;;;;;;;;7.03;52.09;102387.34;5056366;28;19916;-35
2022/04/03 10:18:54;;;;;;;;;;;;;;;7.00;54.49;102387.72;5055715;28;19921;-35
2022/04/03 10:21:38;;;;;;;;;;;;;;;7.05;56.03;102388.88;5055745;28;19916;-35
2022/04/03 10:24:06;;;;;;;;;;;;;;;7.21;56.09;102382.63;5055664;28;19932;-35
2022/04/03 10:26:36;;;;;;;;;;;;;;;7.38;55.45;102378.91;5054948;28;19920;-35
2022/04/03 10:29:01;;;;;;;;;;;;;;;7.34;54.50;102387.50;5055321;28;19917;-35
2022/04/03 10:31:26;;;;;;;;;;;;;;;7.24;54.58;102376.91;5055523;28;20361;-35
2022/04/03 10:33:52;;;;;;;;;;;;;;;7.44;55.14;102374.69;5054883;28;19920;-35
2022/04/03 10:36:24;;;;;;;;;;;;;;;7.73;52.11;102366.81;5055298;28;19917;-35
2022/04/03 10:39:03;;;;;;;;;;;;;;;7.71;53.17;102368.00;5055643;28;20338;-35
2022/04/03 10:41:34;;;;;;;;;;;;;;;7.48;53.51;102367.94;5055396;28;19952;-35
2022/04/03 10:44:12;;;;;;;;;;;;;;;7.32;54.14;102379.59;5055001;28;19916;-35
2022/04/03 10:46:56;;;;;;;;;;;;;;;7.20;55.04;102375.56;5055287;28;19916;-35
2022/04/03 10:49:28;;;;;;;;;;;;;;;7.12;55.47;102370.19;5054800;28;19916;-35
2022/04/03 10:51:57;;;;;;;;;;;;;;;7.14;55.79;102374.41;5054925;28;20020;-35
2022/04/03 10:54:30;;;;;;;;;;;;;;;7.26;55.59;102368.66;5054678;28;20361;-35
2022/04/03 10:57:15;;;;;;;;;;;;;;;7.34;53.85;102366.81;5055287;28;20270;-35
2022/04/03 10:59:40;;;;;;;;;;;;;;;7.44;55.64;102361.22;5054829;28;19916;-35
2022/04/03 11:02:14;;;;;;;;;;;;;;;7.46;53.44;102360.00;5054930;28;19917;-35
2022/04/03 11:04:39;;;;;;;;;;;;;;;7.52;54.82;102358.50;5054900;28;20252;-35
2022/04/03 11:07:14;;;;;;;;;;;;;;;7.56;54.21;102357.13;5054300;28;20035;-35
2022/04/03 11:09:40;;;;;;;;;;;;;;;7.56;53.80;102357.13;5054398;28;20369;-35
2022/04/03 11:12:05;;;;;;;;;;;;;;;7.51;53.81;102350.59;5054450;28;19943;-35
2022/04/03 11:14:52;;;;;;;;;;;;;;;7.48;53.17;102351.78;5054094;28;19921;-35
2022/04/03 11:17:18;;;;;;;;;;;;;;;7.40;51.83;102352.66;5054962;28;20348;-35
2022/04/03 11:19:44;;;;;;;;;;;;;;;7.39;53.04;102348.28;5054602;28;19999;-35
2022/04/03 11:22:12;;;;;;;;;;;;;;;7.33;53.31;102345.44;5054777;28;19967;-35
2022/04/03 11:24:38;;;;;;;;;;;;;;;7.37;51.77;102353.00;5054316;28;20392;-35
2022/04/03 11:27:04;;;;;;;;;;;;;;;7.41;53.04;102351.63;5054695;28;19917;-35
2022/04/03 11:29:30;;;;;;;;;;;;;;;7.44;53.32;102343.22;5054170;28;19970;-35
2022/04/03 11:31:56;;;;;;;;;;;;;;;7.48;53.51;102332.94;5054533;28;19917;-35
2022/04/03 11:34:27;;;;;;;;;;;;;;;7.54;52.28;102334.94;5054704;28;20269;-35
2022/04/03 11:36:56;;;;;;;;;;;;;;;7.63;51.83;102341.13;5053661;28;19942;-35
2022/04/03 11:39:21;;;;;;;;;;;;;;;7.66;52.05;102338.06;5054162;28;19917;-35
2022/04/03 11:41:50;;;;;;;;;;;;;;;7.72;53.04;102337.38;5053936;28;20242;-35
2022/04/03 11:44:15;;;;;;;;;;;;;;;7.78;52.65;102327.75;5054776;28;20015;-35
2022/04/03 11:46:45;;;;;;;;;;;;;;;7.79;52.26;102326.75;5054203;28;19975;-35
2022/04/03 11:49:15;;;;;;;;;;;;;;;7.71;53.24;102336.56;5053924;28;19966;-35
2022/04/03 11:51:41;;;;;;;;;;;;;;;7.57;53.41;102329.22;5054470;28;19960;-35
2022/04/03 11:54:06;;;;;;;;;;;;;;;7.49;55.28;102327.38;5053790;28;20019;-35
2022/04/03 11:56:34;;;;;;;;;;;;;;;7.35;54.50;102330.78;5054188;28;19948;-35
2022/04/03 11:59:00;;;;;;;;;;;;;;;7.33;55.44;102326.63;5054027;28;19924;-35
2022/04/03 12:01:25;;;;;;;;;;;;;;;7.35;56.03;102330.78;5053111;28;20349;-35
2022/04/03 12:03:58;;;;;;;;;;;;;;;7.44;57.00;102321.69;5053334;28;19917;-35
2022/04/03 12:06:23;;;;;;;;;;;;;;;7.34;57.47;102321.06;5054164;28;19955;-35
2022/04/03 12:08:49;;;;;;;;;;;;;;;7.23;59.75;102334.88;5053566;28;19952;-35
2022/04/03 12:11:15;;;;;;;;;;;;;;;7.31;59.94;102334.84;5053522;28;19982;-35
2022/04/03 12:13:40;;;;;;;;;;;;;;;7.60;59.49;102322.63;5053835;28;19917;-35
2022/04/03 12:16:06;;;;;;;;;;;;;;;7.78;58.88;102331.28;5053657;28;19994;-35
2022/04/03 12:18:46;;;;;;;;;;;;;;;8.02;58.29;102316.00;5053265;28;19924;-35
2022/04/03 12:21:11;;;;;;;;;;;;;;;8.36;58.49;102313.78;5053008;28;19917;-35
2022/04/03 12:23:36;;;;;;;;;;;;;;;8.54;57.73;102309.91;5053011;28;20015;-35
2022/04/03 12:26:02;;;;;;;;;;;;;;;8.60;57.27;102301.94;5053305;28;19917;-35
2022/04/03 12:28:27;;;;;;;;;;;;;;;8.85;56.94;102299.84;5052887;28;19916;-35
2022/04/03 12:30:59;;;;;;;;;;;;;;;9.11;55.63;102293.16;5053041;28;19924;-35
2022/04/03 12:33:24;;;;;;;;;;;;;;;9.48;54.09;102281.41;5053214;28;19924;-35
2022/04/03 12:35:49;;;;;;;;;;;;;;;9.78;53.27;102287.59;5053109;28;19917;-35